首页
METAR-TAF:

METAR-TAF

机场 :

约翰斯敦, 宾夕法尼亚州, 美国

纬度: 40-18-58N, 经度: 078-50-02W, 海拔: 696米

当前天气观测

该预报发布于17分钟前的15:12 UTC
风速8节,风向西转西南
温度 20°C
湿度 83%
气压 1018 hPa
能見度: 16.1公里
少量云层高于900英尺
多云层高于1600英尺
阴天层高于2100英尺

METAR: KJST 171512Z AUTO 24008KT 10SM FEW009 BKN016 OVC021 20/17 A3005 RMK AO2 T02000172

时间: 11:29 (15:29 UTC)

预报

该预报发布于1小时和26分钟前的14:03 UTC
预报有效从17日的 14点(UTC)到 18日的 12点(UTC)
风速7节,风向西转西南
能見度: 10公里
多云层高于900英尺
附近有阵雨
从 17日的 1500点(UTC)
风速6节,风向西转西南
能見度: 8.0公里
阴天层高于1500英尺
小阵雨, 轻雾
从 17日的 1700点(UTC)
风速7节,风向西转西南
能見度: 10公里
阴天层高于3500英尺
附近有阵雨
从 18日的 0200点(UTC)
风速4节,风向多变
能見度: 8.0公里
多云层高于2500英尺
小阵雨, 轻雾

TAF: KJST 171403Z 1714/1812 25007KT P6SM VCSH BKN009 FM171500 24006KT 5SM -SHRA BR OVC015 FM171700 25007KT P6SM VCSH OVC035 FM180200 VRB04KT 5SM -SHRA BR BKN025

超过4000个机场的气象观测和天气预报(METAR&TAF报告)。

可查询的气象台以黄色和红色小点在地图上表示。

将鼠标移到小点上方,可查看气象台名称。

然后点击查看天气观测和预报。

如需切换地图:点击带黑十字的绿色按钮放大地图;点击带横线的绿色按钮缩小地图;或者点击绿色箭头查看邻近地区的地图。


METAR-TAF: